Time;durP1;ratioP1;P1;durP2;ratioP2;P2;SDS_P1;SDS_P2;PMS_P1;PMS_P2;Temp;Humidity;BMP_temperature;BMP_pressure;BME280_temperature;BME280_humidity;BME280_pressure;Samples;Min_cycle;Max_cycle;Signal;HPM_P1;HPM_P2
2022/03/16 00:00:13;;;;;;;10.57;7.30;;;5.50;99.90;;;;;;4918015;29;20064;-87
2022/03/16 00:02:39;;;;;;;10.63;7.43;;;5.40;99.90;;;;;;4917002;29;20134;-88
2022/03/16 00:05:05;;;;;;;10.27;7.43;;;5.40;99.90;;;;;;4918487;29;20071;-85
2022/03/16 00:07:31;;;;;;;11.85;7.95;;;5.40;99.90;;;;;;4918152;29;20043;-86
2022/03/16 00:09:57;;;;;;;10.43;7.22;;;5.40;99.90;;;;;;4916621;29;20032;-88
2022/03/16 00:12:22;;;;;;;10.98;7.32;;;5.50;99.90;;;;;;4916472;29;20102;-86
2022/03/16 00:14:48;;;;;;;11.93;8.25;;;5.50;99.90;;;;;;4916539;29;20037;-87
2022/03/16 00:17:14;;;;;;;10.98;7.70;;;5.40;99.90;;;;;;4917784;29;20044;-88
2022/03/16 00:19:40;;;;;;;11.60;7.75;;;5.40;99.90;;;;;;4916689;29;20044;-87
2022/03/16 00:22:06;;;;;;;10.68;7.05;;;5.40;99.90;;;;;;4918022;29;20035;-86
2022/03/16 00:24:32;;;;;;;11.43;7.95;;;5.40;99.90;;;;;;4916710;29;20043;-87
2022/03/16 00:26:58;;;;;;;9.32;7.32;;;5.30;99.90;;;;;;4901138;29;20044;-87
2022/03/16 00:29:24;;;;;;;11.18;7.43;;;5.30;99.90;;;;;;4916433;29;20028;-87
2022/03/16 00:31:50;;;;;;;12.32;7.72;;;5.30;99.90;;;;;;4916388;29;20107;-88
2022/03/16 00:34:15;;;;;;;12.68;8.07;;;5.20;99.90;;;;;;4918231;29;20064;-87
2022/03/16 00:36:41;;;;;;;9.60;7.72;;;5.20;99.90;;;;;;4921666;29;20032;-86
2022/03/16 00:39:07;;;;;;;10.13;7.55;;;5.10;99.90;;;;;;4927509;29;20059;-86
2022/03/16 00:41:34;;;;;;;11.43;7.57;;;5.10;99.90;;;;;;4921539;29;20028;-86
2022/03/16 00:44:00;;;;;;;13.23;8.18;;;5.10;99.90;;;;;;4923251;29;20040;-86
2022/03/16 00:46:26;;;;;;;11.90;8.35;;;5.10;99.90;;;;;;4918299;29;20040;-86
2022/03/16 00:48:51;;;;;;;11.55;8.00;;;5.00;99.90;;;;;;4916881;29;20040;-86
2022/03/16 00:51:17;;;;;;;11.07;7.82;;;5.10;99.90;;;;;;4916360;29;20391;-87
2022/03/16 00:53:45;;;;;;;10.68;7.85;;;5.00;99.90;;;;;;4915981;29;20059;-86
2022/03/16 00:56:11;;;;;;;12.77;8.20;;;5.00;99.90;;;;;;4916143;29;20039;-86
2022/03/16 00:58:36;;;;;;;12.02;8.45;;;4.90;99.90;;;;;;4916573;29;20044;-86
2022/03/16 01:01:05;;;;;;;13.55;9.10;;;4.90;99.90;;;;;;4920596;29;20032;-87
2022/03/16 01:03:31;;;;;;;12.63;9.00;;;4.90;99.90;;;;;;4917838;29;20036;-85
2022/03/16 01:05:57;;;;;;;13.63;8.30;;;4.90;99.90;;;;;;4918771;29;20029;-86
2022/03/16 01:08:22;;;;;;;13.65;8.93;;;4.90;99.90;;;;;;4918338;29;20497;-87
2022/03/16 01:10:48;;;;;;;13.32;8.85;;;4.90;99.90;;;;;;4927644;29;20028;-86
2022/03/16 01:13:14;;;;;;;12.75;9.02;;;4.90;99.90;;;;;;4917721;29;20044;-87
2022/03/16 01:15:39;;;;;;;14.63;9.65;;;4.90;99.90;;;;;;4932873;29;20036;-86
2022/03/16 01:18:05;;;;;;;15.80;10.23;;;4.90;99.90;;;;;;4910978;29;20040;-87
2022/03/16 01:20:32;;;;;;;14.77;10.15;;;4.90;99.90;;;;;;4918702;29;20052;-86
2022/03/16 01:22:58;;;;;;;13.55;9.88;;;4.90;99.90;;;;;;4919716;29;20044;-86
2022/03/16 01:25:24;;;;;;;14.65;9.90;;;5.00;99.90;;;;;;4921043;29;20024;-87
2022/03/16 01:27:50;;;;;;;14.27;10.00;;;4.90;99.90;;;;;;4925405;29;20044;-87
2022/03/16 01:30:15;;;;;;;14.98;10.07;;;4.90;99.90;;;;;;4923543;29;20069;-86
2022/03/16 01:32:41;;;;;;;14.27;10.15;;;4.90;99.90;;;;;;4921573;29;20065;-86
2022/03/16 01:35:08;;;;;;;16.40;10.05;;;5.00;99.90;;;;;;4904353;29;20071;-86
2022/03/16 01:37:34;;;;;;;15.60;11.07;;;4.90;99.90;;;;;;4920653;29;20037;-85
2022/03/16 01:40:00;;;;;;;16.08;10.88;;;4.90;99.90;;;;;;4919068;29;20052;-87
2022/03/16 01:42:26;;;;;;;15.68;10.68;;;4.90;99.90;;;;;;4920646;29;20040;-87
2022/03/16 01:44:54;;;;;;;14.15;10.52;;;4.90;99.90;;;;;;4911053;29;20044;-85
2022/03/16 01:47:21;;;;;;;13.82;10.18;;;4.90;99.90;;;;;;4912145;29;20040;-87
2022/03/16 01:49:49;;;;;;;13.52;10.48;;;4.90;99.90;;;;;;4910942;29;20039;-87
2022/03/16 01:52:26;;;;;;;13.95;10.05;;;4.80;99.90;;;;;;4905650;29;20072;-86
2022/03/16 01:54:53;;;;;;;15.48;11.10;;;4.80;99.90;;;;;;4903166;29;20043;-88
2022/03/16 01:57:19;;;;;;;15.65;10.20;;;4.80;99.90;;;;;;4902005;29;20040;-85
2022/03/16 01:59:45;;;;;;;16.42;11.50;;;4.80;99.90;;;;;;4902520;29;20028;-87
2022/03/16 02:02:12;;;;;;;16.63;10.95;;;4.80;99.90;;;;;;4905164;29;20060;-86
2022/03/16 02:04:39;;;;;;;15.60;10.98;;;4.70;99.90;;;;;;4901169;29;20437;-87
2022/03/16 02:07:05;;;;;;;15.68;10.77;;;4.70;99.90;;;;;;4901039;29;20029;-88
2022/03/16 02:09:32;;;;;;;15.00;10.90;;;4.70;99.90;;;;;;4901862;29;20037;-86
2022/03/16 02:11:58;;;;;;;14.60;10.75;;;4.70;99.90;;;;;;4885242;29;20044;-87
2022/03/16 02:14:23;;;;;;;14.90;11.13;;;4.60;99.90;;;;;;4901612;29;20032;-87
2022/03/16 02:16:49;;;;;;;15.70;11.40;;;4.60;99.90;;;;;;4901691;29;20439;-87
2022/03/16 02:19:15;;;;;;;16.58;11.75;;;4.60;99.90;;;;;;4901851;29;20053;-88
2022/03/16 02:21:44;;;;;;;16.30;11.60;;;4.60;99.90;;;;;;4900217;29;20036;-86
2022/03/16 02:24:11;;;;;;;16.45;11.90;;;4.60;99.90;;;;;;4901124;29;20528;-86
2022/03/16 02:26:36;;;;;;;15.45;11.13;;;4.60;99.90;;;;;;4901728;29;20511;-87
2022/03/16 02:29:03;;;;;;;14.93;10.57;;;4.60;99.90;;;;;;4900220;29;20073;-87
2022/03/16 02:31:28;;;;;;;15.38;11.32;;;4.60;99.90;;;;;;4900371;29;20064;-87
2022/03/16 02:33:54;;;;;;;16.35;12.68;;;4.60;99.90;;;;;;4901176;29;20147;-87
2022/03/16 02:36:20;;;;;;;16.42;11.55;;;4.60;99.90;;;;;;4899764;29;20044;-85
2022/03/16 02:38:46;;;;;;;17.88;12.57;;;4.60;99.90;;;;;;4899007;29;20092;-87
2022/03/16 02:41:12;;;;;;;17.35;11.88;;;4.60;99.90;;;;;;4899907;29;20028;-87
2022/03/16 02:43:38;;;;;;;16.55;11.95;;;4.50;99.90;;;;;;4900949;29;20037;-86
2022/03/16 02:46:04;;;;;;;17.63;12.05;;;4.60;99.90;;;;;;4900914;29;20037;-86
2022/03/16 02:48:30;;;;;;;16.50;11.35;;;4.60;99.90;;;;;;4899139;29;20447;-86
2022/03/16 02:50:56;;;;;;;17.50;12.80;;;4.50;99.90;;;;;;4883596;29;20033;-86
2022/03/16 02:53:21;;;;;;;15.85;12.13;;;4.50;99.90;;;;;;4900105;29;20101;-87
2022/03/16 02:55:48;;;;;;;17.13;11.88;;;4.50;99.90;;;;;;4900303;29;20044;-87
2022/03/16 02:58:14;;;;;;;15.63;11.45;;;4.50;99.90;;;;;;4899363;29;20033;-87
2022/03/16 03:00:41;;;;;;;17.08;12.60;;;4.50;99.90;;;;;;4899748;29;20033;-85
2022/03/16 03:03:07;;;;;;;16.95;12.15;;;4.50;99.90;;;;;;4899626;29;20048;-87
2022/03/16 03:05:33;;;;;;;18.05;12.98;;;4.50;99.90;;;;;;4900320;29;20055;-87
2022/03/16 03:07:59;;;;;;;16.95;12.98;;;4.50;99.90;;;;;;4898950;29;20032;-87
2022/03/16 03:10:25;;;;;;;17.27;13.38;;;4.50;99.90;;;;;;4898742;29;20060;-87
2022/03/16 03:12:51;;;;;;;18.58;13.68;;;4.50;99.90;;;;;;4898446;29;20075;-87
2022/03/16 03:15:17;;;;;;;18.45;13.45;;;4.50;99.90;;;;;;4898402;29;20519;-86
2022/03/16 03:17:43;;;;;;;18.85;13.77;;;4.50;99.90;;;;;;4898562;29;20036;-87
2022/03/16 03:20:10;;;;;;;18.55;13.45;;;4.60;99.90;;;;;;4882895;29;20037;-86
2022/03/16 03:22:36;;;;;;;20.50;15.48;;;4.50;99.90;;;;;;4898217;29;20096;-87
2022/03/16 03:25:03;;;;;;;18.15;14.25;;;4.60;99.90;;;;;;4897744;29;20029;-86
2022/03/16 03:27:30;;;;;;;17.90;13.85;;;4.50;99.90;;;;;;4897595;29;20045;-85
2022/03/16 03:29:56;;;;;;;18.25;13.35;;;4.50;99.90;;;;;;4898070;29;20134;-86
2022/03/16 03:32:22;;;;;;;16.92;12.90;;;4.50;99.90;;;;;;4898105;29;20253;-86
2022/03/16 03:34:51;;;;;;;18.80;13.68;;;4.50;99.90;;;;;;4897675;29;20259;-87
2022/03/16 03:37:18;;;;;;;20.30;14.27;;;4.50;99.90;;;;;;4897981;29;20044;-86
2022/03/16 03:39:43;;;;;;;20.52;15.32;;;4.50;99.90;;;;;;4898903;29;20092;-87
2022/03/16 03:42:12;;;;;;;20.92;14.60;;;4.50;99.90;;;;;;4897533;29;20123;-85
2022/03/16 03:44:37;;;;;;;20.20;14.23;;;4.50;99.90;;;;;;4897812;29;20104;-86
2022/03/16 03:47:05;;;;;;;21.15;13.90;;;4.50;99.90;;;;;;4897335;29;20123;-86
2022/03/16 03:49:36;;;;;;;20.08;14.90;;;4.40;99.90;;;;;;4897358;29;20048;-86
2022/03/16 03:52:03;;;;;;;20.13;15.45;;;4.50;99.90;;;;;;4897347;29;20407;-86
2022/03/16 03:54:29;;;;;;;23.20;16.77;;;4.50;99.90;;;;;;4898732;29;20029;-84
2022/03/16 03:56:55;;;;;;;21.83;16.35;;;4.40;99.90;;;;;;4898572;29;20037;-86
2022/03/16 03:59:20;;;;;;;22.27;16.27;;;4.50;99.90;;;;;;4898723;29;20088;-86
2022/03/16 04:01:47;;;;;;;21.90;16.10;;;4.40;99.90;;;;;;4881786;29;20462;-85
2022/03/16 04:04:13;;;;;;;20.77;15.50;;;4.40;99.90;;;;;;4898558;29;20041;-85
2022/03/16 04:06:39;;;;;;;23.10;17.05;;;4.40;99.90;;;;;;4897496;29;20492;-85
2022/03/16 04:09:05;;;;;;;20.63;15.98;;;4.40;99.90;;;;;;4897118;29;20032;-85
2022/03/16 04:11:31;;;;;;;24.42;18.27;;;4.40;99.90;;;;;;4897202;29;20068;-85
2022/03/16 04:13:57;;;;;;;22.67;16.92;;;4.40;99.90;;;;;;4897297;29;20039;-85
2022/03/16 04:16:22;;;;;;;24.33;17.40;;;4.40;99.90;;;;;;4897360;29;20033;-85
2022/03/16 04:18:48;;;;;;;24.20;18.30;;;4.40;99.90;;;;;;4898661;29;20096;-85
2022/03/16 04:21:14;;;;;;;22.77;17.50;;;4.40;99.90;;;;;;4897148;29;20036;-84
2022/03/16 04:23:39;;;;;;;23.73;17.25;;;4.40;99.90;;;;;;4881488;29;20045;-85
2022/03/16 04:26:05;;;;;;;24.38;17.55;;;4.40;99.90;;;;;;4897062;29;20047;-85
2022/03/16 04:28:30;;;;;;;22.23;16.50;;;4.40;99.90;;;;;;4897352;29;20036;-85
2022/03/16 04:30:56;;;;;;;21.77;16.42;;;4.40;99.90;;;;;;4898402;29;20513;-85
2022/03/16 04:33:22;;;;;;;21.52;16.27;;;4.50;99.90;;;;;;4897059;29;20052;-85
2022/03/16 04:35:48;;;;;;;22.83;16.55;;;4.40;99.90;;;;;;4896932;29;20044;-85
2022/03/16 04:38:13;;;;;;;21.85;16.60;;;4.40;99.90;;;;;;4898849;29;20040;-85
2022/03/16 04:40:39;;;;;;;21.55;15.90;;;4.40;99.90;;;;;;4898638;29;20233;-85
2022/03/16 04:43:04;;;;;;;20.85;15.50;;;4.40;99.90;;;;;;4898399;29;20047;-86
2022/03/16 04:45:31;;;;;;;22.20;15.63;;;4.30;99.90;;;;;;4897110;29;20033;-84
2022/03/16 04:47:57;;;;;;;20.50;15.05;;;4.40;99.90;;;;;;4881460;29;20083;-85
2022/03/16 04:50:23;;;;;;;24.05;17.75;;;4.30;99.90;;;;;;4897077;29;20064;-85
2022/03/16 04:52:49;;;;;;;21.90;16.30;;;4.30;99.90;;;;;;4897039;29;20143;-85
2022/03/16 04:55:15;;;;;;;21.50;16.25;;;4.30;99.90;;;;;;4896866;29;20029;-85
2022/03/16 04:57:42;;;;;;;25.38;17.60;;;4.30;99.90;;;;;;4897030;29;20037;-85
2022/03/16 05:00:09;;;;;;;23.65;16.92;;;4.30;99.90;;;;;;4896781;29;20092;-85
2022/03/16 05:02:34;;;;;;;21.63;15.38;;;4.40;99.90;;;;;;4900268;29;20040;-85
2022/03/16 05:05:00;;;;;;;19.20;14.48;;;4.40;99.90;;;;;;4900566;29;20036;-86
2022/03/16 05:07:26;;;;;;;18.77;14.55;;;4.40;99.90;;;;;;4901885;29;20546;-85
2022/03/16 05:09:52;;;;;;;21.60;15.82;;;4.40;99.90;;;;;;4901916;29;20511;-86
2022/03/16 05:12:17;;;;;;;19.58;14.73;;;4.40;99.90;;;;;;4900483;29;20045;-85
2022/03/16 05:14:43;;;;;;;20.90;14.30;;;4.40;99.90;;;;;;4900626;29;20044;-85
2022/03/16 05:17:09;;;;;;;18.23;13.55;;;4.40;99.90;;;;;;4900650;29;20040;-86
2022/03/16 05:19:34;;;;;;;21.55;14.73;;;4.40;99.90;;;;;;4900733;29;20135;-85
2022/03/16 05:22:00;;;;;;;19.02;13.10;;;4.40;99.90;;;;;;4900348;29;20440;-85
2022/03/16 05:24:26;;;;;;;20.50;14.70;;;4.30;99.90;;;;;;4900602;29;20132;-85
2022/03/16 05:26:52;;;;;;;18.65;13.60;;;4.30;99.90;;;;;;4884739;29;20052;-85
2022/03/16 05:29:18;;;;;;;19.60;15.48;;;4.30;99.90;;;;;;4900424;29;20037;-84
2022/03/16 05:31:43;;;;;;;19.85;14.35;;;4.40;99.90;;;;;;4900266;29;20131;-85
2022/03/16 05:34:09;;;;;;;20.60;14.40;;;4.30;99.90;;;;;;4899722;29;20076;-85
2022/03/16 05:36:35;;;;;;;18.58;13.80;;;4.40;99.90;;;;;;4901636;29;20032;-86
2022/03/16 05:39:01;;;;;;;19.02;13.98;;;4.30;99.90;;;;;;4884488;29;20144;-85
2022/03/16 05:41:27;;;;;;;18.13;13.32;;;4.30;99.90;;;;;;4901124;29;20451;-85
2022/03/16 05:43:52;;;;;;;18.67;13.70;;;4.30;99.90;;;;;;4900071;29;20052;-85
2022/03/16 05:46:18;;;;;;;18.02;13.43;;;4.30;99.90;;;;;;4902751;29;20044;-84
2022/03/16 05:48:44;;;;;;;20.00;15.07;;;4.20;99.90;;;;;;4900370;29;20039;-86
2022/03/16 05:51:09;;;;;;;19.38;14.82;;;4.20;99.90;;;;;;4900286;29;20047;-87
2022/03/16 05:53:35;;;;;;;21.50;14.82;;;4.20;99.90;;;;;;4900585;29;20041;-86
2022/03/16 05:56:01;;;;;;;20.60;15.70;;;4.20;99.90;;;;;;4900063;29;20164;-85
2022/03/16 05:58:27;;;;;;;19.48;14.93;;;4.20;99.90;;;;;;4900132;29;20399;-87
2022/03/16 06:00:52;;;;;;;22.35;16.45;;;4.20;99.90;;;;;;4900081;29;20471;-87
2022/03/16 06:03:18;;;;;;;19.50;14.73;;;4.20;99.90;;;;;;4900193;29;20033;-87
2022/03/16 06:05:44;;;;;;;20.25;15.63;;;4.20;99.90;;;;;;4885098;29;20054;-87
2022/03/16 06:08:09;;;;;;;19.95;14.93;;;4.20;99.90;;;;;;4900724;29;20044;-87
2022/03/16 06:10:35;;;;;;;23.02;16.23;;;4.20;99.90;;;;;;4884946;29;20475;-87
2022/03/16 06:13:02;;;;;;;20.10;15.13;;;4.20;99.90;;;;;;4899835;29;20041;-86
2022/03/16 06:15:29;;;;;;;21.92;15.38;;;4.20;99.90;;;;;;4901494;29;20071;-87
2022/03/16 06:17:58;;;;;;;21.27;15.13;;;4.20;99.90;;;;;;4899999;29;20040;-86
2022/03/16 06:20:25;;;;;;;24.35;16.77;;;4.20;99.90;;;;;;4900871;29;20037;-86
2022/03/16 06:22:52;;;;;;;22.65;16.27;;;4.20;99.90;;;;;;4901197;29;20048;-86
2022/03/16 06:25:17;;;;;;;21.25;17.63;;;4.20;99.90;;;;;;4899605;29;20036;-86
2022/03/16 06:27:43;;;;;;;24.42;18.98;;;4.20;99.90;;;;;;4899754;29;20037;-86
2022/03/16 06:30:09;;;;;;;24.05;17.52;;;4.20;99.90;;;;;;4899681;29;20064;-86
2022/03/16 06:32:35;;;;;;;27.52;20.77;;;4.20;99.90;;;;;;4899755;29;20426;-86
2022/03/16 06:35:03;;;;;;;26.52;20.25;;;4.30;99.90;;;;;;4900928;29;20120;-87
2022/03/16 06:37:29;;;;;;;26.35;19.50;;;4.30;99.90;;;;;;4899969;29;20036;-87
2022/03/16 06:39:55;;;;;;;25.63;19.23;;;4.30;99.90;;;;;;4899682;29;20040;-87
2022/03/16 06:42:20;;;;;;;27.27;20.63;;;4.40;99.90;;;;;;4899010;29;20123;-88
2022/03/16 06:44:46;;;;;;;27.58;19.73;;;4.40;99.90;;;;;;4900516;29;20039;-85
2022/03/16 06:47:11;;;;;;;26.33;19.52;;;4.50;99.90;;;;;;4883888;29;20036;-86
2022/03/16 06:49:37;;;;;;;24.55;18.83;;;4.50;99.90;;;;;;4899053;29;20060;-86
2022/03/16 06:52:03;;;;;;;26.50;19.48;;;4.60;99.90;;;;;;4900388;29;20041;-86
2022/03/16 06:54:29;;;;;;;27.98;21.25;;;4.60;99.90;;;;;;4883619;29;20363;-87
2022/03/16 06:56:55;;;;;;;26.08;19.88;;;4.70;99.90;;;;;;4900687;29;20036;-87
2022/03/16 06:59:21;;;;;;;27.65;20.02;;;4.80;99.90;;;;;;4885121;29;20094;-88
2022/03/16 07:01:47;;;;;;;26.42;20.65;;;4.80;99.90;;;;;;4900155;29;20037;-87
2022/03/16 07:04:13;;;;;;;25.08;19.55;;;4.90;99.90;;;;;;4898717;29;20067;-86
2022/03/16 07:06:38;;;;;;;25.75;19.70;;;5.00;99.90;;;;;;4900506;29;20441;-86
2022/03/16 07:09:04;;;;;;;28.27;20.23;;;5.00;99.90;;;;;;4883158;29;20081;-88
2022/03/16 07:11:30;;;;;;;30.98;23.42;;;5.10;99.90;;;;;;4883735;29;20072;-86
2022/03/16 07:16:41;;;;;;;26.75;19.35;;;5.20;99.90;;;;;;4900260;29;20051;-88
2022/03/16 07:19:08;;;;;;;30.65;20.63;;;5.40;99.90;;;;;;4906756;29;20055;-87
2022/03/16 07:21:33;;;;;;;28.15;21.58;;;5.40;99.90;;;;;;4912632;29;20375;-87
2022/03/16 07:23:59;;;;;;;29.08;21.27;;;5.50;99.90;;;;;;4900781;29;20092;-87
2022/03/16 07:26:25;;;;;;;33.92;21.98;;;5.60;99.90;;;;;;4897647;29;20047;-87
2022/03/16 07:28:51;;;;;;;28.73;20.45;;;5.80;99.90;;;;;;4892833;29;20041;-87
2022/03/16 07:31:17;;;;;;;30.02;21.05;;;5.90;99.90;;;;;;4896775;29;20036;-88
2022/03/16 07:33:42;;;;;;;29.48;22.50;;;6.00;99.90;;;;;;4895194;29;20040;-88
2022/03/16 07:36:08;;;;;;;28.92;21.92;;;6.10;99.90;;;;;;4895170;29;20080;-88
2022/03/16 07:38:34;;;;;;;30.45;23.40;;;6.20;99.90;;;;;;4896636;29;20044;-88
2022/03/16 07:41:02;;;;;;;33.35;25.20;;;6.40;99.90;;;;;;4896382;29;20036;-87
2022/03/16 07:43:28;;;;;;;35.13;26.42;;;6.50;99.90;;;;;;4896067;29;20032;-89
2022/03/16 07:45:54;;;;;;;35.35;27.23;;;6.50;99.90;;;;;;4898813;29;20340;-88
2022/03/16 07:48:20;;;;;;;32.60;24.45;;;6.60;99.90;;;;;;4897609;29;20081;-87
2022/03/16 07:50:46;;;;;;;32.65;23.38;;;6.70;99.90;;;;;;4946779;28;20034;-86
2022/03/16 07:53:11;;;;;;;30.80;23.75;;;6.80;99.90;;;;;;4940621;28;20040;-89
2022/03/16 07:55:37;;;;;;;30.67;21.27;;;6.80;99.90;;;;;;4920589;29;20028;-89
2022/03/16 07:58:03;;;;;;;27.08;21.25;;;6.90;99.90;;;;;;4903256;29;20047;-89
2022/03/16 08:00:29;;;;;;;24.90;19.85;;;6.90;99.90;;;;;;4920497;29;20021;-88
2022/03/16 08:02:55;;;;;;;25.45;19.50;;;6.90;99.90;;;;;;4906954;29;20055;-88
2022/03/16 08:05:24;;;;;;;27.58;20.92;;;6.80;99.90;;;;;;4905619;29;20048;-89
2022/03/16 08:07:50;;;;;;;24.77;18.88;;;6.90;99.90;;;;;;4922626;29;20056;-92
2022/03/16 08:10:16;;;;;;;24.88;19.08;;;7.00;99.90;;;;;;4907085;29;20017;-90
2022/03/16 08:12:41;;;;;;;24.65;19.00;;;7.00;99.90;;;;;;4922263;29;20054;-90
2022/03/16 08:15:07;;;;;;;24.33;19.08;;;7.20;99.90;;;;;;4920937;29;20036;-90
2022/03/16 08:17:34;;;;;;;25.27;18.05;;;7.20;99.90;;;;;;4920399;29;20051;-87
2022/03/16 08:20:00;;;;;;;24.45;17.45;;;7.40;99.90;;;;;;4928817;29;20032;-88
2022/03/16 08:22:26;;;;;;;25.40;17.80;;;7.40;99.90;;;;;;4915142;29;20071;-87
2022/03/16 08:24:52;;;;;;;27.17;19.80;;;7.50;99.90;;;;;;4903965;29;20032;-87
2022/03/16 08:27:18;;;;;;;23.50;18.38;;;7.70;99.90;;;;;;4921149;29;20060;-89
2022/03/16 08:29:44;;;;;;;23.83;18.42;;;7.90;99.90;;;;;;4904016;29;20083;-91
2022/03/16 08:32:09;;;;;;;23.75;18.35;;;8.10;99.90;;;;;;4903736;29;20072;-90
2022/03/16 08:34:35;;;;;;;22.42;17.17;;;8.30;99.90;;;;;;4902293;29;20052;-89
2022/03/16 08:37:02;;;;;;;23.75;17.80;;;8.50;99.90;;;;;;4919551;29;20043;-87
2022/03/16 08:39:29;;;;;;;23.50;16.90;;;8.60;99.90;;;;;;4902266;29;20024;-89
2022/03/16 08:41:55;;;;;;;22.55;16.05;;;8.80;99.90;;;;;;4902114;29;20372;-87
2022/03/16 08:44:22;;;;;;;21.83;16.10;;;8.80;99.90;;;;;;4902618;29;20040;-87
2022/03/16 08:46:50;;;;;;;18.65;14.60;;;8.90;99.90;;;;;;4901699;29;20071;-87
2022/03/16 08:49:16;;;;;;;19.75;14.32;;;9.00;99.90;;;;;;4898422;29;20399;-89
2022/03/16 08:51:42;;;;;;;20.10;15.20;;;9.10;99.90;;;;;;4898824;29;20036;-88
2022/03/16 08:54:08;;;;;;;23.30;14.85;;;9.20;99.90;;;;;;4883701;29;20052;-89
2022/03/16 08:56:34;;;;;;;20.23;14.93;;;9.20;99.90;;;;;;4883684;29;20031;-89
2022/03/16 08:59:00;;;;;;;18.58;13.18;;;9.30;99.90;;;;;;4883584;29;20039;-90
2022/03/16 09:01:26;;;;;;;18.45;13.85;;;9.40;99.90;;;;;;4899912;29;20032;-90
2022/03/16 09:03:53;;;;;;;15.40;10.73;;;9.50;99.90;;;;;;4899156;29;20047;-89
2022/03/16 09:06:19;;;;;;;17.65;12.32;;;9.60;99.90;;;;;;4899588;29;20089;-90
2022/03/16 09:08:45;;;;;;;21.17;14.25;;;9.70;99.90;;;;;;4899612;29;20088;-90
2022/03/16 09:11:11;;;;;;;17.65;13.05;;;9.80;99.90;;;;;;4899005;29;20364;-89
2022/03/16 09:13:37;;;;;;;19.08;13.90;;;9.90;99.90;;;;;;4898356;29;20048;-90
2022/03/16 09:16:02;;;;;;;16.45;12.23;;;10.00;99.90;;;;;;4898506;29;20032;-89
2022/03/16 09:18:29;;;;;;;21.23;13.60;;;10.00;99.90;;;;;;4899513;29;20037;-90
2022/03/16 09:20:55;;;;;;;22.00;13.65;;;10.00;99.90;;;;;;4915137;29;20028;-92
2022/03/16 09:23:20;;;;;;;16.05;12.35;;;10.10;99.90;;;;;;4899223;29;20570;-90
2022/03/16 09:25:46;;;;;;;16.30;12.40;;;10.10;99.90;;;;;;4901436;29;20131;-90
2022/03/16 09:28:12;;;;;;;15.50;11.75;;;10.10;99.90;;;;;;4918552;29;20047;-90
2022/03/16 09:30:38;;;;;;;17.13;12.27;;;10.20;99.90;;;;;;4902220;29;20130;-90
2022/03/16 09:33:04;;;;;;;15.50;11.88;;;10.30;99.90;;;;;;4902203;29;20071;-90
2022/03/16 09:35:33;;;;;;;18.15;12.68;;;10.40;99.90;;;;;;4901765;29;20415;-90
2022/03/16 09:37:59;;;;;;;23.25;14.18;;;10.40;99.90;;;;;;4918835;29;20072;-90
2022/03/16 09:40:25;;;;;;;21.92;14.50;;;10.60;99.90;;;;;;4918199;29;20036;-89
2022/03/16 09:42:52;;;;;;;19.00;13.93;;;11.40;99.90;;;;;;4917643;29;20040;-89
2022/03/16 09:45:21;;;;;;;17.50;12.75;;;12.40;99.90;;;;;;4918459;29;20040;-90
2022/03/16 09:47:48;;;;;;;16.38;12.57;;;13.30;99.90;;;;;;4903094;29;20036;-90
2022/03/16 09:50:17;;;;;;;13.93;11.27;;;14.10;99.90;;;;;;4921641;29;20375;-91
2022/03/16 09:52:44;;;;;;;14.70;10.82;;;15.00;99.90;;;;;;4904595;29;20040;-90
2022/03/16 09:55:10;;;;;;;13.93;10.85;;;15.70;99.90;;;;;;4904531;29;20067;-90
2022/03/16 09:57:35;;;;;;;12.68;10.43;;;16.40;99.90;;;;;;4904245;29;20032;-90
2022/03/16 10:00:01;;;;;;;15.07;11.75;;;16.90;99.90;;;;;;4921660;29;20395;-92
2022/03/16 10:02:27;;;;;;;14.77;10.77;;;17.20;99.90;;;;;;4904287;29;20028;-89
2022/03/16 10:04:54;;;;;;;15.68;12.15;;;17.60;99.90;;;;;;4904685;29;20191;-92
2022/03/16 10:07:29;;;;;;;15.80;11.35;;;18.00;99.90;;;;;;4903844;29;20036;-91
2022/03/16 10:15:25;;;;;;;12.82;10.23;;;18.50;99.90;;;;;;4921863;29;20051;-90
2022/03/16 10:18:05;;;;;;;12.02;9.23;;;18.50;99.90;;;;;;4903852;29;20032;-91
2022/03/16 10:20:35;;;;;;;11.60;9.63;;;18.90;99.90;;;;;;4900651;29;20491;-90
2022/03/16 10:23:17;;;;;;;11.75;9.10;;;19.30;99.90;;;;;;4901658;29;20044;-89
2022/03/16 10:25:47;;;;;;;11.60;8.65;;;19.90;99.90;;;;;;4900438;29;20043;-89
2022/03/16 10:28:20;;;;;;;13.63;8.88;;;20.30;99.90;;;;;;4900701;29;20029;-91
2022/03/16 10:31:07;;;;;;;12.98;10.57;;;20.60;99.90;;;;;;4901550;29;20085;-90
2022/03/16 10:33:56;;;;;;;12.50;11.02;;;20.80;98.10;;;;;;4901133;29;20448;-91
2022/03/16 10:36:24;;;;;;;10.77;8.77;;;20.40;95.80;;;;;;4901261;29;20075;-92
2022/03/16 10:38:51;;;;;;;11.88;7.80;;;20.20;97.10;;;;;;4901687;29;20048;-92
2022/03/16 10:47:00;;;;;;;11.73;9.60;;;20.30;93.70;;;;;;4910207;29;20044;-90
2022/03/16 10:49:30;;;;;;;11.55;9.20;;;19.90;93.10;;;;;;4924167;29;20059;-87
2022/03/16 10:52:05;;;;;;;12.23;9.40;;;19.70;93.60;;;;;;4946441;29;20036;-90
2022/03/16 10:54:32;;;;;;;11.02;9.52;;;19.60;93.20;;;;;;4920831;29;20036;-89
2022/03/16 10:57:02;;;;;;;10.77;8.73;;;19.90;93.40;;;;;;4886090;29;20484;-89
2022/03/16 10:59:32;;;;;;;10.55;9.35;;;20.00;92.60;;;;;;4899995;29;20037;-90
2022/03/16 11:02:12;;;;;;;11.57;9.93;;;20.00;91.60;;;;;;4887215;29;20050;-90
2022/03/16 11:04:39;;;;;;;9.63;8.13;;;20.10;92.20;;;;;;4916459;29;20495;-90
2022/03/16 11:07:06;;;;;;;11.40;9.00;;;20.20;92.10;;;;;;4904687;29;20094;-88
2022/03/16 11:09:32;;;;;;;10.32;8.80;;;20.50;91.30;;;;;;4901845;29;20028;-90
2022/03/16 11:14:47;;;;;;;11.38;9.05;;;20.30;90.40;;;;;;4906409;29;20083;-90
2022/03/16 11:17:14;;;;;;;9.85;8.60;;;20.30;90.70;;;;;;4924729;29;20032;-89
2022/03/16 11:19:46;;;;;;;14.10;9.63;;;20.50;90.10;;;;;;4915275;29;20067;-91
2022/03/16 11:22:14;;;;;;;12.63;8.77;;;20.40;89.60;;;;;;4913358;29;20092;-89
2022/03/16 11:24:47;;;;;;;10.20;8.40;;;20.60;90.60;;;;;;4896557;29;20096;-86
2022/03/16 11:27:42;;;;;;;;;;;20.80;90.00;;;;;;4900123;29;20039;-89
2022/03/16 11:30:26;;;;;;;9.07;7.45;;;21.10;89.70;;;;;;4887391;29;19930;-90
2022/03/16 11:32:58;;;;;;;9.18;7.93;;;21.30;89.20;;;;;;4895167;29;20520;-89
2022/03/16 11:35:30;;;;;;;9.63;8.23;;;21.40;88.40;;;;;;4898983;29;20399;-89
2022/03/16 11:38:03;;;;;;;7.53;6.50;;;21.60;86.80;;;;;;4899516;29;20029;-89
2022/03/16 11:40:31;;;;;;;7.88;6.22;;;21.90;87.90;;;;;;4900584;29;20497;-89
2022/03/16 11:43:11;;;;;;;8.02;7.22;;;22.60;88.40;;;;;;4883133;29;20111;-87
2022/03/16 11:45:43;;;;;;;9.60;8.20;;;22.70;85.90;;;;;;4886055;29;20055;-89
2022/03/16 11:48:40;;;;;;;5.93;5.30;;;22.60;83.40;;;;;;4895996;29;20083;-91
2022/03/16 11:51:09;;;;;;;11.07;7.80;;;22.20;85.80;;;;;;4867721;29;20299;-91
2022/03/16 11:56:23;;;;;;;9.48;8.45;;;21.60;82.40;;;;;;4905400;29;20028;-91
2022/03/16 11:58:52;;;;;;;7.82;6.60;;;21.50;81.80;;;;;;4901835;29;20103;-93
2022/03/16 12:01:31;;;;;;;8.88;7.60;;;21.30;83.90;;;;;;4903464;29;20040;-89
2022/03/16 12:07:02;;;;;;;9.27;7.22;;;20.90;79.40;;;;;;4908270;29;20040;-90
2022/03/16 12:09:49;;;;;;;9.13;8.02;;;19.70;81.70;;;;;;4883367;29;20134;-91
2022/03/16 12:15:11;;;;;;;11.25;7.63;;;18.20;85.50;;;;;;4901423;29;20047;-94
2022/03/16 12:17:38;;;;;;;9.32;7.35;;;18.10;86.80;;;;;;4889635;29;20438;-91
2022/03/16 12:20:11;;;;;;;10.02;8.20;;;18.30;87.70;;;;;;4895994;29;20060;-91
2022/03/16 12:22:46;;;;;;;9.00;8.10;;;18.60;87.20;;;;;;4897585;29;20069;-91
2022/03/16 12:25:30;;;;;;;10.05;7.90;;;18.80;86.40;;;;;;4898594;29;20069;-92
2022/03/16 12:31:13;;;;;;;9.27;8.27;;;18.60;87.30;;;;;;4926130;29;20554;-95
2022/03/16 12:33:42;;;;;;;9.30;7.35;;;18.60;88.00;;;;;;4904351;29;20046;-91
2022/03/16 12:36:16;;;;;;;9.23;7.75;;;19.00;88.70;;;;;;4901403;29;20057;-93
2022/03/16 12:38:49;;;;;;;10.50;8.85;;;19.40;87.20;;;;;;4886638;29;20036;-91
2022/03/16 12:44:03;;;;;;;8.73;6.70;;;19.30;87.30;;;;;;4900127;29;20108;-95
2022/03/16 12:47:04;;;;;;;9.25;7.93;;;19.30;88.90;;;;;;4885095;29;20032;-92
2022/03/16 12:49:31;;;;;;;8.82;7.35;;;19.10;86.50;;;;;;4898296;29;20036;-93
2022/03/16 12:52:00;;;;;;;9.30;8.18;;;18.60;88.80;;;;;;4923048;29;20118;-94
2022/03/16 12:54:36;;;;;;;11.82;8.73;;;18.20;89.80;;;;;;4924437;29;20099;-93
2022/03/16 12:57:13;;;;;;;9.25;8.05;;;17.90;90.00;;;;;;4922975;29;20041;-91
2022/03/16 12:59:57;;;;;;;8.90;7.97;;;17.80;91.00;;;;;;4942113;29;20032;-92
2022/03/16 13:02:30;;;;;;;9.07;7.53;;;17.70;91.00;;;;;;4923594;29;20039;-93
2022/03/16 13:04:57;;;;;;;8.73;7.13;;;17.60;91.60;;;;;;4922965;29;20052;-93
2022/03/16 13:07:25;;;;;;;9.88;8.25;;;17.60;91.60;;;;;;4901912;29;20021;-93
2022/03/16 13:09:53;;;;;;;10.00;8.15;;;17.40;91.80;;;;;;4902065;29;20037;-90